createdAt,value
2023-02-02T00:34:43.002Z,33.24
2023-02-02T00:54:42.997Z,33.24
2023-02-02T01:14:42.993Z,33.24
2023-02-02T01:54:42.865Z,33.24
2023-02-02T02:54:43.063Z,33.25
2023-02-02T03:34:42.216Z,33.25
2023-02-02T03:54:43.026Z,33.25
2023-02-02T04:14:42.860Z,33.24
2023-02-02T04:54:42.984Z,33.25
2023-02-02T05:14:42.995Z,33.25
2023-02-02T05:54:42.983Z,33.25
2023-02-02T06:14:42.976Z,33.25
2023-02-02T06:34:42.971Z,33.25
2023-02-02T06:54:43.006Z,33.25
2023-02-02T07:14:42.977Z,33.25
2023-02-02T07:34:42.980Z,33.25
2023-02-02T07:54:42.199Z,33.25
2023-02-02T08:14:42.966Z,33.25
2023-02-02T10:54:55.232Z,33.26
2023-02-02T11:34:42.938Z,33.27
2023-02-02T11:54:42.942Z,33.27
2023-02-02T12:14:42.934Z,33.28
2023-02-02T12:34:42.949Z,33.28
2023-02-02T12:54:45.862Z,33.28
2023-02-02T14:34:42.945Z,33.32
2023-02-02T14:54:42.164Z,33.33
2023-02-02T16:14:42.914Z,33.38
2023-02-02T16:34:44.510Z,33.4
2023-02-02T16:54:42.911Z,33.42
2023-02-02T17:14:42.897Z,33.44
2023-02-02T17:34:42.131Z,33.45
2023-02-02T17:54:42.890Z,33.47
2023-02-02T18:14:42.934Z,33.49
2023-02-02T18:34:42.947Z,33.52
2023-02-02T18:54:42.893Z,33.54
2023-02-02T19:14:42.914Z,33.57
2023-02-02T19:34:42.379Z,33.6
2023-02-02T19:54:42.879Z,33.64
2023-02-02T20:14:42.861Z,33.66
2023-02-02T20:34:42.787Z,33.69
2023-02-02T20:54:42.901Z,33.74
2023-02-02T21:14:42.859Z,33.77
2023-02-02T21:34:42.872Z,33.82
2023-02-02T22:14:42.842Z,33.91
2023-02-02T22:54:42.882Z,34.01
